Time;durP1;ratioP1;P1;durP2;ratioP2;P2;SDS_P1;SDS_P2;PMS_P1;PMS_P2;Temp;Humidity;BMP_temperature;BMP_pressure;BME280_temperature;BME280_humidity;BME280_pressure;Samples;Min_cycle;Max_cycle;Signal;HPM_P1;HPM_P2
2022/12/14 00:01:23;;;;;;;13.80;6.25;;;13.80;99.90;;;;;;4812612;29;20022;-93
2022/12/14 00:03:50;;;;;;;14.52;6.55;;;13.80;99.90;;;;;;4812731;29;20049;-93
2022/12/14 00:06:21;;;;;;;14.35;5.70;;;13.80;99.90;;;;;;4812409;29;20484;-93
2022/12/14 00:08:50;;;;;;;16.25;6.45;;;13.70;99.90;;;;;;4812865;29;20034;-92
2022/12/14 00:11:18;;;;;;;11.48;6.53;;;13.70;99.90;;;;;;4812222;29;20500;-93
2022/12/14 00:13:45;;;;;;;12.65;6.20;;;13.60;99.90;;;;;;4811919;29;20389;-92
2022/12/14 00:16:15;;;;;;;21.05;6.60;;;13.60;99.90;;;;;;4811826;29;20059;-92
2022/12/14 00:18:43;;;;;;;17.92;6.55;;;13.70;99.90;;;;;;4811898;29;20492;-92
2022/12/14 00:21:13;;;;;;;12.85;6.60;;;13.70;99.90;;;;;;4811881;29;20037;-93
2022/12/14 00:23:42;;;;;;;17.63;5.72;;;13.70;99.90;;;;;;4811515;29;20046;-92
2022/12/14 00:26:23;;;;;;;16.65;6.45;;;13.60;99.90;;;;;;4811857;29;20026;-93
2022/12/14 00:28:51;;;;;;;18.80;5.97;;;13.70;99.90;;;;;;4812230;29;20062;-92
2022/12/14 00:31:19;;;;;;;21.27;6.18;;;13.70;99.90;;;;;;4812058;29;20032;-92
2022/12/14 00:33:46;;;;;;;33.53;7.13;;;13.70;99.90;;;;;;4831026;29;20085;-93
2022/12/14 00:36:13;;;;;;;22.42;6.65;;;13.70;99.90;;;;;;4845856;29;20556;-92
2022/12/14 00:38:40;;;;;;;17.40;6.35;;;13.80;99.90;;;;;;4845543;29;20506;-93
2022/12/14 00:41:07;;;;;;;23.80;6.32;;;13.80;99.90;;;;;;4845142;29;20061;-92
2022/12/14 00:43:35;;;;;;;22.33;7.00;;;13.80;99.90;;;;;;4845541;29;20468;-92
2022/12/14 00:46:01;;;;;;;27.02;7.30;;;13.80;99.90;;;;;;4845200;29;20034;-92
2022/12/14 00:48:28;;;;;;;35.40;7.28;;;13.70;99.90;;;;;;4845081;29;20112;-93
2022/12/14 00:50:55;;;;;;;22.55;6.75;;;13.80;99.90;;;;;;4845441;29;20030;-93
2022/12/14 00:53:22;;;;;;;22.40;6.57;;;13.80;99.90;;;;;;4844841;29;20029;-92
2022/12/14 00:55:50;;;;;;;16.83;6.15;;;13.80;99.90;;;;;;4845173;29;20053;-92
2022/12/14 00:58:19;;;;;;;29.30;7.70;;;13.80;99.90;;;;;;4845172;29;20125;-92
2022/12/14 01:00:47;;;;;;;29.50;6.60;;;13.70;99.90;;;;;;4845186;29;20038;-91
2022/12/14 01:03:14;;;;;;;20.45;6.53;;;13.70;99.90;;;;;;4846328;29;20041;-91
2022/12/14 01:05:41;;;;;;;21.05;6.88;;;13.70;99.90;;;;;;4848351;29;20032;-90
2022/12/14 01:08:07;;;;;;;32.90;7.40;;;13.60;99.90;;;;;;4848483;29;20037;-91
2022/12/14 01:10:39;;;;;;;25.23;7.55;;;13.60;99.90;;;;;;4848002;29;20455;-92
2022/12/14 01:13:06;;;;;;;21.88;6.85;;;13.60;99.90;;;;;;4848037;29;20029;-91
2022/12/14 01:15:36;;;;;;;39.83;6.80;;;13.50;99.90;;;;;;4848059;29;20491;-91
2022/12/14 01:18:03;;;;;;;28.50;7.95;;;13.50;99.90;;;;;;4847928;29;20496;-93
2022/12/14 01:20:29;;;;;;;34.53;9.20;;;13.50;99.90;;;;;;4848189;29;20033;-92
2022/12/14 01:22:56;;;;;;;30.65;8.23;;;13.40;99.90;;;;;;4847786;29;20518;-92
2022/12/14 01:25:23;;;;;;;27.20;8.52;;;13.40;99.90;;;;;;4832543;29;20045;-92
2022/12/14 01:27:49;;;;;;;24.20;7.93;;;13.40;99.90;;;;;;4847679;29;20085;-92
2022/12/14 01:30:18;;;;;;;37.00;8.18;;;13.40;99.90;;;;;;4847867;29;20042;-92
2022/12/14 01:32:45;;;;;;;22.88;7.53;;;13.30;99.90;;;;;;4829168;29;20064;-93
2022/12/14 01:35:11;;;;;;;19.98;6.90;;;13.30;99.90;;;;;;4814256;29;20379;-91
2022/12/14 01:37:38;;;;;;;27.17;7.85;;;13.30;99.90;;;;;;4814266;29;20038;-93
2022/12/14 01:40:05;;;;;;;32.13;8.40;;;13.30;99.90;;;;;;4829823;29;20037;-92
2022/12/14 01:42:35;;;;;;;19.67;7.40;;;13.30;99.90;;;;;;4813961;29;20026;-92
2022/12/14 01:45:03;;;;;;;22.25;6.88;;;13.30;99.90;;;;;;4814433;29;20094;-93
2022/12/14 01:47:43;;;;;;;18.58;6.10;;;13.30;99.90;;;;;;4829411;29;20052;-91
2022/12/14 01:50:36;;;;;;;28.92;7.43;;;13.30;99.90;;;;;;4816990;29;20030;-91
2022/12/14 01:53:14;;;;;;;24.35;6.38;;;13.30;99.90;;;;;;4813981;29;20086;-93
2022/12/14 01:55:46;;;;;;;31.92;7.22;;;13.30;99.90;;;;;;4829152;29;20042;-93
2022/12/14 01:58:20;;;;;;;18.60;6.35;;;13.30;99.90;;;;;;4814976;29;20521;-92
2022/12/14 02:00:47;;;;;;;13.85;6.03;;;13.40;99.90;;;;;;4833612;29;20038;-92
2022/12/14 02:03:21;;;;;;;20.33;6.47;;;13.40;99.90;;;;;;4814188;29;20030;-92
2022/12/14 02:05:55;;;;;;;22.85;5.80;;;13.40;99.90;;;;;;4828812;29;20034;-93
2022/12/14 02:08:24;;;;;;;27.20;6.80;;;13.40;99.90;;;;;;4843823;29;20483;-92
2022/12/14 02:10:51;;;;;;;16.52;6.05;;;13.40;99.90;;;;;;4829088;29;20061;-93
2022/12/14 02:13:31;;;;;;;18.05;6.60;;;13.40;99.90;;;;;;4828827;29;20049;-93
2022/12/14 02:15:58;;;;;;;26.23;7.32;;;13.30;99.90;;;;;;4813457;29;20030;-93
2022/12/14 02:18:28;;;;;;;20.83;6.47;;;13.30;99.90;;;;;;4813501;29;20510;-94
2022/12/14 02:21:22;;;;;;;25.58;6.78;;;13.40;99.90;;;;;;4813553;29;20398;-92
2022/12/14 02:24:09;;;;;;;25.88;7.25;;;13.40;99.90;;;;;;4828298;29;20155;-93
2022/12/14 02:26:42;;;;;;;15.25;6.15;;;13.30;99.90;;;;;;4828541;29;20034;-92
2022/12/14 02:29:24;;;;;;;24.13;7.38;;;13.20;99.90;;;;;;4813381;29;20488;-93
2022/12/14 02:32:18;;;;;;;30.08;7.75;;;13.20;99.90;;;;;;4828566;29;20038;-92
2022/12/14 02:35:16;;;;;;;24.47;6.97;;;13.10;99.90;;;;;;4843612;29;20054;-93
2022/12/14 02:37:52;;;;;;;22.27;6.55;;;13.20;99.90;;;;;;4828602;29;20290;-93
2022/12/14 02:40:28;;;;;;;22.05;6.78;;;13.10;99.90;;;;;;4828591;29;20030;-92
2022/12/14 02:43:13;;;;;;;20.13;5.63;;;13.10;99.90;;;;;;4828325;29;20480;-92
2022/12/14 02:45:42;;;;;;;23.85;7.45;;;13.10;99.90;;;;;;4813263;29;20050;-92
2022/12/14 02:48:23;;;;;;;20.70;7.00;;;13.10;99.90;;;;;;4828693;29;20030;-92
2022/12/14 02:51:18;;;;;;;16.45;6.15;;;13.00;99.90;;;;;;4829052;29;20042;-92
2022/12/14 02:54:06;;;;;;;16.60;6.45;;;13.00;99.90;;;;;;4827741;29;20038;-92
2022/12/14 02:56:39;;;;;;;16.60;6.07;;;13.00;99.90;;;;;;4831849;29;20129;-93
2022/12/14 02:59:07;;;;;;;24.20;7.50;;;13.00;99.90;;;;;;4813025;29;20026;-92
2022/12/14 03:01:36;;;;;;;27.00;7.13;;;13.10;99.90;;;;;;4812761;29;20038;-93
2022/12/14 03:04:03;;;;;;;13.93;6.43;;;13.20;99.90;;;;;;4812785;29;20049;-92
2022/12/14 03:06:30;;;;;;;25.35;7.35;;;13.20;99.90;;;;;;4827928;29;20515;-93
2022/12/14 03:09:05;;;;;;;28.05;7.70;;;13.20;99.90;;;;;;4827735;29;20030;-93
2022/12/14 03:11:55;;;;;;;21.38;7.25;;;13.30;99.90;;;;;;4812697;29;20030;-91
2022/12/14 03:14:37;;;;;;;26.40;7.28;;;13.40;99.90;;;;;;4827909;29;20033;-93
2022/12/14 03:17:13;;;;;;;27.23;8.60;;;13.50;99.90;;;;;;4812662;29;20034;-92
2022/12/14 03:19:49;;;;;;;21.20;7.85;;;13.50;99.90;;;;;;4813162;29;20128;-92
2022/12/14 03:22:42;;;;;;;31.20;8.43;;;13.50;99.90;;;;;;4813099;29;20125;-92
2022/12/14 03:25:24;;;;;;;21.75;7.40;;;13.60;99.90;;;;;;4834327;29;20128;-92
2022/12/14 03:28:01;;;;;;;22.08;7.38;;;13.60;99.90;;;;;;4828629;29;20038;-93
2022/12/14 03:30:31;;;;;;;27.42;7.25;;;13.60;99.90;;;;;;4828166;29;20034;-92
2022/12/14 03:33:03;;;;;;;28.55;7.95;;;13.70;99.90;;;;;;4850088;29;20077;-92
2022/12/14 03:35:47;;;;;;;13.85;6.88;;;13.70;99.90;;;;;;4862289;29;20029;-92
2022/12/14 03:38:44;;;;;;;21.42;7.00;;;13.60;99.90;;;;;;4843430;29;20094;-93
2022/12/14 03:41:45;;;;;;;24.95;7.63;;;13.70;99.90;;;;;;4828720;29;20172;-92
2022/12/14 03:44:33;;;;;;;22.73;7.30;;;13.70;99.90;;;;;;4830893;29;20072;-93
2022/12/14 03:47:13;;;;;;;23.55;7.60;;;13.70;99.90;;;;;;4830814;29;20097;-93
2022/12/14 03:50:00;;;;;;;29.02;7.20;;;13.70;99.90;;;;;;4845600;29;20033;-93
2022/12/14 03:52:36;;;;;;;18.42;7.00;;;13.70;99.90;;;;;;4845487;29;20026;-92
2022/12/14 03:55:22;;;;;;;27.55;7.28;;;13.80;99.90;;;;;;4846170;29;20509;-93
2022/12/14 03:58:15;;;;;;;18.98;7.13;;;13.80;99.90;;;;;;4830302;29;20040;-92
2022/12/14 04:00:50;;;;;;;23.17;7.13;;;13.80;99.90;;;;;;4830379;29;20104;-93
2022/12/14 04:03:44;;;;;;;28.02;7.15;;;13.80;99.90;;;;;;4845820;29;20048;-93
2022/12/14 04:06:40;;;;;;;35.83;7.78;;;13.80;99.90;;;;;;4814416;29;20045;-92
2022/12/14 04:09:28;;;;;;;26.58;6.97;;;13.80;99.90;;;;;;4845414;29;20495;-93
2022/12/14 04:21:07;;;;;;;20.60;6.97;;;13.80;99.90;;;;;;4845485;29;20085;-92
2022/12/14 04:26:39;;;;;;;26.70;7.40;;;13.90;99.90;;;;;;4847874;29;20041;-92
2022/12/14 04:32:04;;;;;;;20.38;6.55;;;13.80;99.90;;;;;;4845220;29;20519;-92
2022/12/14 04:34:33;;;;;;;21.80;6.85;;;13.80;99.90;;;;;;4826836;29;20063;-92
2022/12/14 04:37:04;;;;;;;18.70;7.05;;;13.80;99.90;;;;;;4811605;29;20069;-92
2022/12/14 04:39:55;;;;;;;23.65;6.50;;;13.80;99.90;;;;;;4814577;29;20034;-92
2022/12/14 04:42:27;;;;;;;31.92;7.70;;;13.80;99.90;;;;;;4814964;29;20058;-92
2022/12/14 04:45:00;;;;;;;15.23;6.15;;;13.80;99.90;;;;;;4814842;29;20045;-93
2022/12/14 04:47:34;;;;;;;24.65;6.72;;;13.90;99.90;;;;;;4815030;29;20121;-92
2022/12/14 04:50:12;;;;;;;26.65;7.60;;;13.80;99.90;;;;;;4815278;29;20086;-92
2022/12/14 04:52:46;;;;;;;20.35;6.50;;;13.80;99.90;;;;;;4815075;29;20042;-93
2022/12/14 04:55:29;;;;;;;25.23;7.05;;;13.80;99.90;;;;;;4845138;29;20041;-91
2022/12/14 04:58:08;;;;;;;39.42;7.95;;;13.70;99.90;;;;;;4819250;29;20038;-92
2022/12/14 05:00:39;;;;;;;22.92;7.10;;;13.70;99.90;;;;;;4830044;29;20041;-92
2022/12/14 05:03:21;;;;;;;28.92;6.63;;;13.80;99.90;;;;;;4829552;29;20057;-91
2022/12/14 05:06:31;;;;;;;25.13;6.38;;;13.70;99.90;;;;;;4829731;29;20046;-92
2022/12/14 05:09:06;;;;;;;32.88;7.07;;;13.70;99.90;;;;;;4814863;29;20030;-92
2022/12/14 05:11:41;;;;;;;27.83;7.55;;;13.70;99.90;;;;;;4829673;29;20038;-92
2022/12/14 05:14:16;;;;;;;19.25;6.05;;;13.80;99.90;;;;;;4814920;29;20030;-93
2022/12/14 05:16:43;;;;;;;20.92;6.25;;;13.80;99.90;;;;;;4814608;29;20492;-92
2022/12/14 05:19:10;;;;;;;24.23;6.63;;;13.80;99.90;;;;;;4829777;29;20034;-92
2022/12/14 05:21:48;;;;;;;28.17;7.53;;;13.80;99.90;;;;;;4814653;29;20037;-91
2022/12/14 05:24:16;;;;;;;26.83;6.43;;;13.80;99.90;;;;;;4814405;29;20098;-91
2022/12/14 05:26:42;;;;;;;32.13;7.03;;;13.80;99.90;;;;;;4829836;29;20026;-91
2022/12/14 05:29:09;;;;;;;24.05;7.25;;;13.80;99.90;;;;;;4844371;29;20037;-91
2022/12/14 05:31:35;;;;;;;26.30;8.38;;;13.80;99.90;;;;;;4829373;29;20030;-91
2022/12/14 05:34:01;;;;;;;29.98;6.78;;;13.80;99.90;;;;;;4814179;29;20054;-91
2022/12/14 05:36:28;;;;;;;31.15;6.82;;;13.80;99.90;;;;;;4814510;29;20086;-91
2022/12/14 05:38:55;;;;;;;39.55;8.57;;;13.80;99.90;;;;;;4829407;29;20140;-90
2022/12/14 05:41:22;;;;;;;27.50;8.63;;;13.80;99.90;;;;;;4829117;29;20034;-91
2022/12/14 05:43:48;;;;;;;30.88;8.02;;;13.80;99.90;;;;;;4829382;29;20404;-90
2022/12/14 05:46:15;;;;;;;27.70;7.57;;;13.80;99.90;;;;;;4829205;29;20053;-93
2022/12/14 05:48:41;;;;;;;26.45;7.85;;;13.80;99.90;;;;;;4828625;29;20034;-91
2022/12/14 05:51:10;;;;;;;23.48;8.10;;;13.80;99.90;;;;;;4844829;29;20043;-92
2022/12/14 05:53:37;;;;;;;29.88;7.40;;;13.80;99.90;;;;;;4814559;29;20049;-92
2022/12/14 05:56:05;;;;;;;27.88;7.80;;;13.90;99.90;;;;;;4830167;29;20042;-93
2022/12/14 05:58:34;;;;;;;28.55;8.15;;;13.90;99.90;;;;;;4832289;29;20030;-92
2022/12/14 06:01:08;;;;;;;29.38;8.40;;;14.00;99.90;;;;;;4816550;29;20051;-93
2022/12/14 06:03:34;;;;;;;27.30;8.68;;;14.00;99.90;;;;;;4829697;29;20404;-91
2022/12/14 06:06:10;;;;;;;39.65;10.45;;;14.10;99.90;;;;;;4829117;29;20506;-92
2022/12/14 06:08:38;;;;;;;34.90;9.02;;;14.10;99.90;;;;;;4814142;29;20034;-92
2022/12/14 06:11:11;;;;;;;38.50;9.85;;;14.20;99.90;;;;;;4813238;29;20109;-92
2022/12/14 06:13:38;;;;;;;21.35;8.63;;;14.30;99.90;;;;;;4813396;29;20034;-92
2022/12/14 06:16:14;;;;;;;36.45;8.00;;;14.30;99.90;;;;;;4813585;29;20109;-92
2022/12/14 06:18:49;;;;;;;39.03;8.80;;;14.40;99.90;;;;;;4828497;29;20030;-92
2022/12/14 06:21:19;;;;;;;30.63;8.35;;;14.40;99.90;;;;;;4813371;29;20113;-91
2022/12/14 06:23:46;;;;;;;30.02;8.38;;;14.50;99.90;;;;;;4813294;29;20034;-92
2022/12/14 06:26:13;;;;;;;28.38;7.75;;;14.50;99.90;;;;;;4816129;29;20026;-92
2022/12/14 06:28:40;;;;;;;28.77;8.68;;;14.60;99.90;;;;;;4813402;29;20396;-92
2022/12/14 06:31:11;;;;;;;29.27;8.23;;;14.60;99.90;;;;;;4828824;29;20026;-92
2022/12/14 06:33:38;;;;;;;30.48;8.30;;;14.60;99.90;;;;;;4822609;29;20050;-92
2022/12/14 06:36:05;;;;;;;26.48;7.18;;;14.60;99.90;;;;;;4813646;29;20492;-94
2022/12/14 06:38:34;;;;;;;21.50;7.53;;;14.70;99.90;;;;;;4828951;29;20034;-93
2022/12/14 06:41:07;;;;;;;26.75;7.20;;;14.70;99.90;;;;;;4828571;29;20042;-92
2022/12/14 06:43:34;;;;;;;30.58;8.52;;;14.80;99.90;;;;;;4813613;29;20044;-93
2022/12/14 06:46:05;;;;;;;30.83;7.57;;;14.80;99.90;;;;;;4813186;29;20411;-93
2022/12/14 06:48:32;;;;;;;24.70;7.70;;;14.90;99.90;;;;;;4828409;29;20030;-92
2022/12/14 06:51:03;;;;;;;27.60;7.50;;;14.90;99.90;;;;;;4843400;29;20037;-93
2022/12/14 06:53:30;;;;;;;31.92;7.80;;;14.90;99.90;;;;;;4813898;29;20042;-91
2022/12/14 06:56:14;;;;;;;37.60;8.93;;;14.90;99.90;;;;;;4813482;29;20068;-92
2022/12/14 06:58:43;;;;;;;32.65;8.02;;;14.90;99.90;;;;;;4843789;29;20061;-93
2022/12/14 07:01:22;;;;;;;29.80;8.73;;;15.00;99.90;;;;;;4813244;29;20472;-92
2022/12/14 07:03:52;;;;;;;28.20;7.35;;;15.00;99.90;;;;;;4812840;29;20131;-91
2022/12/14 07:06:19;;;;;;;37.35;8.07;;;15.00;99.90;;;;;;4813468;29;20362;-92
2022/12/14 07:08:46;;;;;;;25.70;7.30;;;15.10;99.90;;;;;;4812969;29;20041;-91
2022/12/14 07:11:15;;;;;;;37.25;8.38;;;15.10;99.90;;;;;;4813350;29;20058;-93
2022/12/14 07:13:42;;;;;;;27.80;7.07;;;15.20;99.90;;;;;;4813056;29;20124;-92
2022/12/14 07:16:15;;;;;;;29.90;6.65;;;15.20;99.90;;;;;;4843539;29;20034;-91
2022/12/14 07:18:53;;;;;;;30.27;7.03;;;15.20;99.90;;;;;;4827850;29;20068;-92
2022/12/14 07:21:20;;;;;;;23.38;7.18;;;15.30;99.90;;;;;;4828813;29;20038;-94
2022/12/14 07:23:48;;;;;;;30.38;6.60;;;15.30;99.90;;;;;;4828301;29;20049;-92
2022/12/14 07:26:24;;;;;;;34.05;7.55;;;15.40;99.90;;;;;;4812734;29;20090;-93
2022/12/14 07:28:59;;;;;;;29.15;6.55;;;15.50;99.90;;;;;;4813155;29;20026;-92
2022/12/14 07:31:27;;;;;;;27.48;7.03;;;15.50;99.90;;;;;;4812834;29;20476;-93
2022/12/14 07:34:00;;;;;;;33.38;6.38;;;15.60;99.90;;;;;;4828021;29;20078;-92
2022/12/14 07:36:31;;;;;;;26.48;6.43;;;15.50;99.90;;;;;;4844209;29;20037;-92
2022/12/14 07:38:59;;;;;;;25.05;6.05;;;15.60;99.90;;;;;;4812573;29;20041;-92
2022/12/14 07:41:29;;;;;;;25.45;5.93;;;15.60;99.90;;;;;;4828152;29;20094;-93
2022/12/14 07:44:00;;;;;;;23.92;5.82;;;15.60;99.90;;;;;;4812136;29;20045;-92
2022/12/14 07:46:27;;;;;;;32.85;7.28;;;15.70;99.90;;;;;;4812049;29;20026;-91
2022/12/14 07:48:56;;;;;;;20.33;5.60;;;15.70;99.90;;;;;;4812806;29;20042;-91
2022/12/14 07:51:25;;;;;;;27.25;5.82;;;15.70;99.90;;;;;;4820743;24;20118;-94
2022/12/14 07:53:53;;;;;;;21.50;5.90;;;15.70;99.90;;;;;;4809410;29;20034;-91
2022/12/14 07:56:27;;;;;;;29.20;6.85;;;15.80;99.90;;;;;;4824352;29;20030;-92
2022/12/14 07:58:55;;;;;;;33.88;7.13;;;15.80;99.90;;;;;;4824132;29;20034;-93
2022/12/14 08:01:23;;;;;;;25.65;6.05;;;15.90;99.90;;;;;;4808939;29;20137;-93
2022/12/14 08:03:52;;;;;;;25.80;5.63;;;15.90;99.90;;;;;;4793701;29;20038;-92
2022/12/14 08:06:20;;;;;;;22.67;6.55;;;15.90;99.90;;;;;;4808623;29;20030;-92
2022/12/14 08:08:46;;;;;;;33.40;6.30;;;16.00;99.90;;;;;;4808924;29;20031;-91
2022/12/14 08:11:14;;;;;;;25.40;5.90;;;16.00;99.90;;;;;;4809214;29;20071;-92
2022/12/14 08:13:42;;;;;;;22.02;6.50;;;16.10;99.90;;;;;;4812275;29;20588;-91
2022/12/14 08:16:12;;;;;;;25.95;5.80;;;16.10;99.90;;;;;;4812675;29;20042;-95
2022/12/14 08:18:40;;;;;;;26.92;6.63;;;16.20;99.90;;;;;;4812581;29;20030;-92
2022/12/14 08:21:09;;;;;;;24.50;6.55;;;16.20;99.90;;;;;;4812052;29;20038;-94
2022/12/14 08:23:36;;;;;;;31.60;6.00;;;16.20;99.90;;;;;;4812339;29;20042;-91
2022/12/14 08:26:05;;;;;;;27.38;5.82;;;16.30;99.90;;;;;;4812458;29;20102;-90
2022/12/14 08:28:33;;;;;;;17.55;6.05;;;16.30;99.90;;;;;;4812615;29;20049;-92
2022/12/14 08:31:05;;;;;;;28.55;5.82;;;16.40;99.90;;;;;;4812904;29;20023;-93
2022/12/14 08:33:33;;;;;;;27.63;6.30;;;16.40;99.90;;;;;;4812256;29;20038;-92
2022/12/14 08:36:12;;;;;;;24.75;6.07;;;16.50;99.90;;;;;;4812047;29;20083;-93
2022/12/14 08:38:40;;;;;;;29.73;6.57;;;16.60;99.90;;;;;;4812111;29;20038;-91
2022/12/14 08:41:09;;;;;;;28.23;6.55;;;16.50;99.90;;;;;;4811753;29;20027;-92
2022/12/14 08:43:36;;;;;;;30.40;6.88;;;16.50;99.90;;;;;;4811904;29;20038;-93
2022/12/14 08:46:03;;;;;;;23.13;6.15;;;16.60;99.90;;;;;;4812082;29;20197;-92
2022/12/14 08:48:30;;;;;;;28.88;6.03;;;16.60;99.90;;;;;;4812107;29;20035;-92
2022/12/14 08:51:05;;;;;;;21.65;6.05;;;16.70;99.90;;;;;;4812163;29;20106;-91
2022/12/14 08:53:32;;;;;;;25.40;6.97;;;16.70;99.90;;;;;;4811940;29;20038;-93
2022/12/14 08:56:03;;;;;;;25.95;7.00;;;16.80;99.90;;;;;;4811762;29;20034;-91
2022/12/14 08:58:30;;;;;;;30.58;6.50;;;16.90;99.90;;;;;;4811824;29;20034;-93
2022/12/14 09:01:18;;;;;;;24.02;6.47;;;16.90;99.90;;;;;;4811921;29;20125;-91
2022/12/14 09:03:46;;;;;;;25.38;6.78;;;16.80;99.90;;;;;;4811591;29;20080;-92
2022/12/14 09:06:19;;;;;;;32.97;8.02;;;16.90;99.90;;;;;;4811914;29;20450;-92
2022/12/14 09:08:45;;;;;;;24.95;8.00;;;16.90;99.90;;;;;;4811978;29;20039;-92
2022/12/14 09:11:14;;;;;;;31.45;7.45;;;16.90;99.90;;;;;;4811674;29;20056;-91
2022/12/14 09:13:42;;;;;;;38.17;8.23;;;16.90;99.90;;;;;;4826856;29;20091;-92
2022/12/14 09:16:12;;;;;;;21.70;7.68;;;16.80;99.90;;;;;;4811583;29;20501;-91
2022/12/14 09:18:39;;;;;;;29.05;8.02;;;16.90;99.90;;;;;;4811654;29;20041;-92
2022/12/14 09:21:06;;;;;;;46.67;8.43;;;16.80;99.90;;;;;;4811628;29;20031;-91
2022/12/14 09:23:34;;;;;;;23.50;8.50;;;16.80;99.90;;;;;;4825408;29;20117;-91
2022/12/14 09:26:05;;;;;;;20.60;6.95;;;16.70;99.90;;;;;;4811625;29;20034;-90
2022/12/14 09:28:33;;;;;;;24.63;7.32;;;16.70;99.90;;;;;;4811802;29;20034;-93
2022/12/14 09:31:12;;;;;;;23.70;7.75;;;16.70;99.90;;;;;;4811411;29;20070;-91
2022/12/14 09:33:38;;;;;;;38.13;7.57;;;16.70;99.90;;;;;;4811519;29;20071;-91
2022/12/14 09:36:08;;;;;;;18.35;7.03;;;16.70;99.90;;;;;;4811493;29;20053;-92
2022/12/14 09:38:36;;;;;;;25.90;7.70;;;16.70;99.90;;;;;;4811097;29;20091;-90
2022/12/14 09:41:06;;;;;;;27.33;7.40;;;16.80;99.90;;;;;;4811067;29;20033;-90
2022/12/14 09:43:39;;;;;;;30.10;7.70;;;16.80;99.90;;;;;;4811068;29;20050;-91
2022/12/14 09:46:40;;;;;;;22.42;7.45;;;16.80;99.90;;;;;;4811243;29;20030;-91
2022/12/14 09:49:28;;;;;;;29.40;7.53;;;16.90;99.90;;;;;;4796571;29;20050;-91
2022/12/14 09:52:01;;;;;;;25.10;8.07;;;16.90;99.90;;;;;;4795917;29;20417;-93
2022/12/14 09:54:32;;;;;;;29.33;7.10;;;16.90;99.90;;;;;;4825924;29;20034;-92
2022/12/14 09:57:10;;;;;;;33.78;7.70;;;16.90;99.90;;;;;;4810985;29;20034;-91
2022/12/14 09:59:37;;;;;;;29.17;8.18;;;16.90;99.90;;;;;;4810963;29;20443;-91
2022/12/14 10:02:23;;;;;;;22.33;7.57;;;16.90;99.90;;;;;;4810852;29;20030;-91
2022/12/14 10:05:23;;;;;;;25.33;8.05;;;16.90;99.90;;;;;;4810612;29;20043;-94
2022/12/14 10:08:14;;;;;;;25.25;7.88;;;16.90;99.90;;;;;;4759122;30;20043;-91
2022/12/14 10:10:52;;;;;;;32.90;8.45;;;17.00;99.90;;;;;;4759098;30;20057;-91
2022/12/14 10:13:24;;;;;;;22.40;8.18;;;17.00;99.90;;;;;;4759249;30;20031;-90
2022/12/14 10:16:17;;;;;;;23.23;8.93;;;17.00;99.90;;;;;;4759097;30;20142;-90
2022/12/14 10:19:02;;;;;;;32.90;9.10;;;17.00;99.90;;;;;;4759296;30;20095;-91
2022/12/14 10:21:41;;;;;;;30.58;8.85;;;17.00;99.90;;;;;;4759115;30;20035;-92
2022/12/14 10:24:19;;;;;;;20.13;7.85;;;17.10;99.90;;;;;;4758805;30;20059;-92
2022/12/14 10:26:52;;;;;;;29.77;8.60;;;17.10;99.90;;;;;;4773661;30;20031;-92
2022/12/14 10:29:33;;;;;;;23.65;7.97;;;17.10;99.90;;;;;;4773799;30;20035;-91
2022/12/14 10:32:10;;;;;;;19.92;7.90;;;17.10;99.90;;;;;;4773918;30;20042;-92
2022/12/14 10:34:40;;;;;;;19.10;8.77;;;17.10;99.90;;;;;;4758774;29;20031;-90
2022/12/14 10:37:24;;;;;;;25.80;9.32;;;17.20;99.90;;;;;;4774095;29;20093;-91
2022/12/14 10:40:13;;;;;;;27.58;11.10;;;17.20;99.90;;;;;;4774147;30;20040;-91
2022/12/14 10:43:03;;;;;;;22.17;8.45;;;17.10;99.90;;;;;;4773579;30;20138;-91
2022/12/14 10:45:40;;;;;;;25.67;8.70;;;17.00;99.90;;;;;;4810116;29;20069;-91
2022/12/14 10:48:38;;;;;;;21.30;8.65;;;17.00;99.90;;;;;;4809850;29;20501;-90
2022/12/14 10:51:17;;;;;;;18.05;9.20;;;17.00;99.90;;;;;;4824961;29;20146;-90
2022/12/14 10:53:52;;;;;;;20.55;10.20;;;17.00;99.90;;;;;;4809983;29;20133;-92
2022/12/14 10:56:27;;;;;;;24.80;8.45;;;16.90;99.90;;;;;;4810112;29;20026;-90
2022/12/14 10:59:21;;;;;;;23.90;9.45;;;16.90;99.90;;;;;;4809749;29;20049;-92
2022/12/14 11:01:52;;;;;;;25.33;9.38;;;16.80;99.90;;;;;;4809615;29;20031;-90
2022/12/14 11:04:37;;;;;;;22.33;9.95;;;16.80;99.90;;;;;;4809491;29;20046;-89
2022/12/14 11:07:10;;;;;;;22.33;9.13;;;16.80;99.90;;;;;;4809552;29;20088;-92
2022/12/14 11:09:38;;;;;;;27.98;12.30;;;16.80;99.90;;;;;;4809708;29;20038;-93
2022/12/14 11:12:16;;;;;;;53.58;21.73;;;16.80;99.90;;;;;;4809755;29;20033;-92
2022/12/14 11:14:57;;;;;;;36.28;15.30;;;16.80;99.90;;;;;;4809813;29;20038;-89
2022/12/14 11:17:39;;;;;;;65.68;31.98;;;16.70;99.90;;;;;;4809526;29;20468;-91
2022/12/14 11:20:21;;;;;;;31.75;12.90;;;16.80;99.90;;;;;;4809494;29;20091;-90
2022/12/14 11:22:54;;;;;;;30.60;10.55;;;16.80;99.90;;;;;;4809525;29;20045;-93
2022/12/14 11:25:28;;;;;;;20.05;9.95;;;16.70;99.90;;;;;;4809518;29;20061;-92
2022/12/14 11:27:55;;;;;;;21.80;8.80;;;16.70;99.90;;;;;;4809216;29;20069;-89
2022/12/14 11:30:21;;;;;;;18.60;8.50;;;16.70;99.90;;;;;;4809387;29;20054;-89
2022/12/14 11:32:48;;;;;;;13.68;8.07;;;16.70;99.90;;;;;;4824912;29;20068;-92
2022/12/14 11:35:19;;;;;;;18.90;8.10;;;16.70;99.90;;;;;;4809322;29;20034;-91
2022/12/14 11:37:48;;;;;;;18.55;7.75;;;16.70;99.90;;;;;;4809196;29;20034;-89
2022/12/14 11:40:25;;;;;;;20.13;8.68;;;16.80;99.90;;;;;;4809000;29;20542;-90
2022/12/14 11:42:59;;;;;;;17.70;7.43;;;16.90;99.90;;;;;;4809051;29;20039;-91
2022/12/14 11:45:29;;;;;;;20.63;9.27;;;17.00;99.90;;;;;;4794226;29;20070;-91
2022/12/14 11:48:20;;;;;;;21.15;9.13;;;17.00;99.90;;;;;;4808853;29;20370;-92
2022/12/14 11:50:48;;;;;;;25.95;10.68;;;17.10;99.90;;;;;;4809074;29;20409;-92
2022/12/14 11:53:18;;;;;;;24.65;11.52;;;17.00;99.90;;;;;;4809140;29;20038;-92
2022/12/14 11:56:01;;;;;;;36.53;15.55;;;17.00;99.90;;;;;;4808901;29;20061;-91
2022/12/14 11:58:32;;;;;;;27.38;12.80;;;17.10;99.90;;;;;;4808901;29;20035;-90
2022/12/14 12:01:04;;;;;;;26.48;11.30;;;17.00;99.90;;;;;;4809049;29;20054;-91
2022/12/14 12:03:58;;;;;;;27.48;12.43;;;17.00;99.90;;;;;;4809505;29;20516;-94
2022/12/14 12:06:27;;;;;;;22.13;7.57;;;16.80;99.90;;;;;;4806918;29;20042;-94
2022/12/14 12:09:00;;;;;;;23.20;8.93;;;16.70;99.90;;;;;;4809066;29;20030;-93
2022/12/14 12:11:31;;;;;;;18.00;9.13;;;16.60;99.90;;;;;;4809763;29;20039;-93
2022/12/14 12:14:04;;;;;;;20.65;9.13;;;16.60;99.90;;;;;;4811390;29;20030;-92
2022/12/14 13:29:08;;;;;;;19.83;14.80;;;16.10;99.90;;;;;;5329354;23;20057;-90
2022/12/14 13:31:56;;;;;;;22.35;14.50;;;16.10;99.90;;;;;;4862018;29;20037;-91
2022/12/14 19:03:16;;;;;;;48.13;11.80;;;16.70;99.90;;;;;;4967130;23;20053;-92
2022/12/14 19:06:00;;;;;;;56.92;11.73;;;16.70;99.90;;;;;;4852297;29;20040;-92
2022/12/14 19:08:37;;;;;;;55.05;11.52;;;16.60;99.90;;;;;;4873009;29;20130;-93
2022/12/14 19:12:00;;;;;;;;;;;;;;;;;;;;;
2022/12/14 19:15:01;;;;;;;39.10;11.88;;;16.60;99.90;;;;;;4870657;29;20029;-91
2022/12/14 19:17:31;;;;;;;47.92;10.88;;;16.60;99.90;;;;;;4850341;29;20033;-90
2022/12/14 19:19:58;;;;;;;40.28;10.88;;;16.60;99.90;;;;;;4833333;29;20082;-91
2022/12/14 19:22:28;;;;;;;41.72;13.85;;;16.60;99.90;;;;;;4833576;29;20034;-91
2022/12/14 19:24:54;;;;;;;48.33;11.95;;;16.60;99.90;;;;;;4832815;29;20049;-92
2022/12/14 19:27:24;;;;;;;56.95;12.40;;;16.60;99.90;;;;;;4831936;29;20099;-91
2022/12/14 19:29:50;;;;;;;51.70;13.07;;;16.60;99.90;;;;;;4832514;29;20037;-91
2022/12/14 19:32:17;;;;;;;54.83;13.27;;;16.60;99.90;;;;;;4830760;29;20048;-90
2022/12/14 19:34:44;;;;;;;54.53;12.48;;;16.60;99.90;;;;;;4830600;29;20598;-90
2022/12/14 19:37:11;;;;;;;54.72;13.52;;;16.60;99.90;;;;;;4830501;29;20037;-90
2022/12/14 19:39:49;;;;;;;53.33;13.13;;;16.50;99.90;;;;;;4836631;29;20124;-90
2022/12/14 19:42:25;;;;;;;53.88;12.27;;;16.60;99.90;;;;;;4849705;29;20034;-91
2022/12/14 19:44:52;;;;;;;47.58;12.18;;;16.60;99.90;;;;;;4851345;29;20529;-92
2022/12/14 19:47:24;;;;;;;52.47;12.35;;;16.60;99.90;;;;;;4852451;29;20100;-92
2022/12/14 19:49:51;;;;;;;46.45;11.23;;;16.60;99.90;;;;;;4869881;29;20064;-92
2022/12/14 19:52:26;;;;;;;50.13;12.70;;;16.60;99.90;;;;;;4852491;29;20482;-91
2022/12/14 19:55:21;;;;;;;38.50;9.75;;;16.50;99.90;;;;;;4897886;24;20061;-91
2022/12/14 19:57:48;;;;;;;41.20;10.02;;;16.60;99.90;;;;;;4821093;29;20042;-92
2022/12/14 20:00:16;;;;;;;36.47;10.32;;;16.60;99.90;;;;;;4837619;29;20046;-92
2022/12/14 20:02:43;;;;;;;40.50;9.02;;;16.60;99.90;;;;;;4803923;29;20042;-92
2022/12/14 20:05:12;;;;;;;38.88;10.35;;;16.60;99.90;;;;;;4820242;29;20035;-93